sensor_id;sensor_type;location;lat;lon;timestamp;P1;durP1;ratioP1;P2;durP2;ratioP2
55172;SDS011;41061;52.822;6.860;2023-02-01T00:00:24;29.98;;;4.60;;
55172;SDS011;41061;52.822;6.860;2023-02-01T00:02:50;22.55;;;3.88;;
55172;SDS011;41061;52.822;6.860;2023-02-01T00:05:15;29.55;;;4.10;;
55172;SDS011;41061;52.822;6.860;2023-02-01T00:07:41;18.83;;;3.95;;
55172;SDS011;41061;52.822;6.860;2023-02-01T00:10:07;29.15;;;4.57;;
55172;SDS011;41061;52.822;6.860;2023-02-01T00:12:33;28.30;;;4.03;;
55172;SDS011;41061;52.822;6.860;2023-02-01T00:14:59;27.98;;;5.43;;
55172;SDS011;41061;52.822;6.860;2023-02-01T00:17:24;23.55;;;3.40;;
55172;SDS011;41061;52.822;6.860;2023-02-01T00:19:50;23.70;;;3.97;;
55172;SDS011;41061;52.822;6.860;2023-02-01T00:22:16;26.00;;;3.80;;
55172;SDS011;41061;52.822;6.860;2023-02-01T00:24:42;32.63;;;4.10;;
55172;SDS011;41061;52.822;6.860;2023-02-01T00:27:08;24.48;;;3.80;;
55172;SDS011;41061;52.822;6.860;2023-02-01T00:29:33;23.88;;;4.35;;
55172;SDS011;41061;52.822;6.860;2023-02-01T00:31:59;25.75;;;5.22;;
55172;SDS011;41061;52.822;6.860;2023-02-01T00:34:25;34.22;;;4.75;;
55172;SDS011;41061;52.822;6.860;2023-02-01T00:36:50;28.10;;;5.57;;
55172;SDS011;41061;52.822;6.860;2023-02-01T00:39:16;20.83;;;3.92;;
55172;SDS011;41061;52.822;6.860;2023-02-01T00:41:42;23.38;;;3.50;;
55172;SDS011;41061;52.822;6.860;2023-02-01T00:44:08;32.90;;;4.50;;
55172;SDS011;41061;52.822;6.860;2023-02-01T00:46:34;29.38;;;4.57;;
55172;SDS011;41061;52.822;6.860;2023-02-01T00:48:59;21.10;;;4.10;;
55172;SDS011;41061;52.822;6.860;2023-02-01T00:51:26;20.38;;;3.83;;
55172;SDS011;41061;52.822;6.860;2023-02-01T00:53:53;24.55;;;3.85;;
55172;SDS011;41061;52.822;6.860;2023-02-01T00:56:19;28.33;;;4.38;;
55172;SDS011;41061;52.822;6.860;2023-02-01T00:58:45;22.13;;;4.10;;
55172;SDS011;41061;52.822;6.860;2023-02-01T01:01:21;28.02;;;4.38;;
55172;SDS011;41061;52.822;6.860;2023-02-01T01:03:49;25.23;;;4.00;;
55172;SDS011;41061;52.822;6.860;2023-02-01T01:06:18;26.13;;;3.95;;
55172;SDS011;41061;52.822;6.860;2023-02-01T01:08:47;29.55;;;4.10;;
55172;SDS011;41061;52.822;6.860;2023-02-01T01:11:13;20.77;;;4.00;;
55172;SDS011;41061;52.822;6.860;2023-02-01T01:13:41;22.05;;;3.20;;
55172;SDS011;41061;52.822;6.860;2023-02-01T01:16:08;26.85;;;4.70;;
55172;SDS011;41061;52.822;6.860;2023-02-01T01:18:35;24.05;;;3.47;;
55172;SDS011;41061;52.822;6.860;2023-02-01T01:21:01;22.27;;;3.80;;
55172;SDS011;41061;52.822;6.860;2023-02-01T01:23:28;30.75;;;4.32;;
55172;SDS011;41061;52.822;6.860;2023-02-01T01:25:54;25.88;;;4.22;;
55172;SDS011;41061;52.822;6.860;2023-02-01T01:28:20;27.50;;;4.22;;
55172;SDS011;41061;52.822;6.860;2023-02-01T01:30:46;22.77;;;4.32;;
55172;SDS011;41061;52.822;6.860;2023-02-01T01:33:12;23.58;;;4.00;;
55172;SDS011;41061;52.822;6.860;2023-02-01T01:35:38;25.45;;;3.97;;
55172;SDS011;41061;52.822;6.860;2023-02-01T01:38:04;30.23;;;4.65;;
55172;SDS011;41061;52.822;6.860;2023-02-01T01:40:30;19.40;;;3.38;;
55172;SDS011;41061;52.822;6.860;2023-02-01T01:42:56;23.67;;;3.78;;
55172;SDS011;41061;52.822;6.860;2023-02-01T01:45:33;26.15;;;4.63;;
55172;SDS011;41061;52.822;6.860;2023-02-01T01:48:01;31.63;;;4.38;;
55172;SDS011;41061;52.822;6.860;2023-02-01T01:53:50;21.13;;;3.90;;
55172;SDS011;41061;52.822;6.860;2023-02-01T01:56:31;30.45;;;3.80;;
55172;SDS011;41061;52.822;6.860;2023-02-01T01:58:59;35.15;;;5.63;;
55172;SDS011;41061;52.822;6.860;2023-02-01T02:01:26;29.67;;;5.35;;
55172;SDS011;41061;52.822;6.860;2023-02-01T02:03:52;26.33;;;4.38;;
55172;SDS011;41061;52.822;6.860;2023-02-01T02:08:54;32.53;;;5.20;;
55172;SDS011;41061;52.822;6.860;2023-02-01T02:11:20;28.73;;;3.42;;
55172;SDS011;41061;52.822;6.860;2023-02-01T02:13:47;21.25;;;3.85;;
55172;SDS011;41061;52.822;6.860;2023-02-01T02:38:13;28.67;;;4.85;;
55172;SDS011;41061;52.822;6.860;2023-02-01T02:49:20;25.73;;;4.50;;
55172;SDS011;41061;52.822;6.860;2023-02-01T02:52:40;23.88;;;3.50;;
55172;SDS011;41061;52.822;6.860;2023-02-01T02:55:31;22.15;;;4.05;;
55172;SDS011;41061;52.822;6.860;2023-02-01T02:58:00;31.73;;;4.60;;
55172;SDS011;41061;52.822;6.860;2023-02-01T03:00:47;28.67;;;4.22;;
55172;SDS011;41061;52.822;6.860;2023-02-01T03:03:35;22.63;;;4.03;;
55172;SDS011;41061;52.822;6.860;2023-02-01T03:06:22;34.50;;;5.72;;
55172;SDS011;41061;52.822;6.860;2023-02-01T03:08:49;26.65;;;3.97;;
55172;SDS011;41061;52.822;6.860;2023-02-01T03:11:18;35.70;;;4.57;;
55172;SDS011;41061;52.822;6.860;2023-02-01T03:13:56;24.88;;;3.90;;
55172;SDS011;41061;52.822;6.860;2023-02-01T03:16:28;28.92;;;4.68;;
55172;SDS011;41061;52.822;6.860;2023-02-01T03:24:07;34.80;;;4.40;;
55172;SDS011;41061;52.822;6.860;2023-02-01T03:26:36;24.75;;;3.63;;
55172;SDS011;41061;52.822;6.860;2023-02-01T03:29:16;29.90;;;5.20;;
55172;SDS011;41061;52.822;6.860;2023-02-01T03:31:46;25.52;;;3.83;;
55172;SDS011;41061;52.822;6.860;2023-02-01T03:34:12;27.50;;;5.03;;
55172;SDS011;41061;52.822;6.860;2023-02-01T03:39:21;25.08;;;5.07;;
55172;SDS011;41061;52.822;6.860;2023-02-01T03:41:55;24.15;;;4.43;;
55172;SDS011;41061;52.822;6.860;2023-02-01T03:44:37;22.70;;;3.70;;
55172;SDS011;41061;52.822;6.860;2023-02-01T03:47:23;27.65;;;4.50;;
55172;SDS011;41061;52.822;6.860;2023-02-01T03:50:33;20.45;;;3.38;;
55172;SDS011;41061;52.822;6.860;2023-02-01T03:53:26;23.98;;;4.43;;
55172;SDS011;41061;52.822;6.860;2023-02-01T03:55:35;21.80;;;4.93;;
55172;SDS011;41061;52.822;6.860;2023-02-01T03:58:15;23.05;;;4.05;;
55172;SDS011;41061;52.822;6.860;2023-02-01T04:00:53;30.25;;;3.92;;
55172;SDS011;41061;52.822;6.860;2023-02-01T04:03:20;30.13;;;4.10;;
55172;SDS011;41061;52.822;6.860;2023-02-01T04:05:47;16.20;;;3.10;;
55172;SDS011;41061;52.822;6.860;2023-02-01T04:08:14;20.85;;;2.95;;
55172;SDS011;41061;52.822;6.860;2023-02-01T04:10:40;27.42;;;4.22;;
55172;SDS011;41061;52.822;6.860;2023-02-01T04:13:05;26.98;;;4.80;;
55172;SDS011;41061;52.822;6.860;2023-02-01T04:15:31;22.70;;;3.33;;
55172;SDS011;41061;52.822;6.860;2023-02-01T04:17:58;24.10;;;3.10;;
55172;SDS011;41061;52.822;6.860;2023-02-01T04:20:24;24.58;;;3.40;;
55172;SDS011;41061;52.822;6.860;2023-02-01T04:22:50;16.02;;;3.45;;
55172;SDS011;41061;52.822;6.860;2023-02-01T04:25:15;29.40;;;5.30;;
55172;SDS011;41061;52.822;6.860;2023-02-01T04:27:42;24.98;;;4.07;;
55172;SDS011;41061;52.822;6.860;2023-02-01T04:30:08;24.05;;;4.15;;
55172;SDS011;41061;52.822;6.860;2023-02-01T04:32:35;22.33;;;3.67;;
55172;SDS011;41061;52.822;6.860;2023-02-01T04:35:02;28.20;;;4.80;;
55172;SDS011;41061;52.822;6.860;2023-02-01T04:37:28;20.38;;;3.47;;
55172;SDS011;41061;52.822;6.860;2023-02-01T04:39:54;22.63;;;3.78;;
55172;SDS011;41061;52.822;6.860;2023-02-01T04:42:19;27.02;;;3.72;;
55172;SDS011;41061;52.822;6.860;2023-02-01T04:44:46;27.55;;;4.90;;
55172;SDS011;41061;52.822;6.860;2023-02-01T04:47:12;18.35;;;3.40;;
55172;SDS011;41061;52.822;6.860;2023-02-01T04:49:39;31.25;;;6.13;;
55172;SDS011;41061;52.822;6.860;2023-02-01T04:52:05;29.83;;;4.18;;
55172;SDS011;41061;52.822;6.860;2023-02-01T04:54:31;20.20;;;3.83;;
55172;SDS011;41061;52.822;6.860;2023-02-01T04:56:56;22.92;;;3.50;;
55172;SDS011;41061;52.822;6.860;2023-02-01T04:59:22;31.17;;;4.97;;
55172;SDS011;41061;52.822;6.860;2023-02-01T05:01:48;33.53;;;4.43;;
55172;SDS011;41061;52.822;6.860;2023-02-01T05:04:13;24.55;;;3.47;;
55172;SDS011;41061;52.822;6.860;2023-02-01T05:06:39;25.67;;;5.03;;
55172;SDS011;41061;52.822;6.860;2023-02-01T05:09:05;25.08;;;4.00;;
55172;SDS011;41061;52.822;6.860;2023-02-01T05:11:30;19.92;;;3.38;;
55172;SDS011;41061;52.822;6.860;2023-02-01T05:14:15;23.50;;;3.38;;
55172;SDS011;41061;52.822;6.860;2023-02-01T05:16:40;22.38;;;4.07;;
55172;SDS011;41061;52.822;6.860;2023-02-01T05:19:06;28.23;;;3.63;;
55172;SDS011;41061;52.822;6.860;2023-02-01T05:21:32;25.95;;;3.72;;
55172;SDS011;41061;52.822;6.860;2023-02-01T05:23:57;19.90;;;3.78;;
55172;SDS011;41061;52.822;6.860;2023-02-01T05:26:37;24.17;;;4.22;;
55172;SDS011;41061;52.822;6.860;2023-02-01T05:29:04;23.67;;;3.70;;
55172;SDS011;41061;52.822;6.860;2023-02-01T05:31:30;30.05;;;4.65;;
55172;SDS011;41061;52.822;6.860;2023-02-01T05:33:56;32.13;;;3.92;;
55172;SDS011;41061;52.822;6.860;2023-02-01T05:36:22;19.70;;;3.65;;
55172;SDS011;41061;52.822;6.860;2023-02-01T05:38:48;28.58;;;3.85;;
55172;SDS011;41061;52.822;6.860;2023-02-01T05:41:13;18.95;;;3.50;;
55172;SDS011;41061;52.822;6.860;2023-02-01T05:43:39;30.50;;;3.88;;
55172;SDS011;41061;52.822;6.860;2023-02-01T05:46:05;22.08;;;2.92;;
55172;SDS011;41061;52.822;6.860;2023-02-01T05:48:30;19.98;;;3.05;;
55172;SDS011;41061;52.822;6.860;2023-02-01T05:50:56;23.50;;;4.03;;
55172;SDS011;41061;52.822;6.860;2023-02-01T05:53:22;26.00;;;3.45;;
55172;SDS011;41061;52.822;6.860;2023-02-01T05:55:48;28.48;;;3.95;;
55172;SDS011;41061;52.822;6.860;2023-02-01T05:58:14;20.42;;;2.90;;
55172;SDS011;41061;52.822;6.860;2023-02-01T06:00:39;13.25;;;3.03;;
55172;SDS011;41061;52.822;6.860;2023-02-01T06:03:05;26.80;;;3.22;;
55172;SDS011;41061;52.822;6.860;2023-02-01T06:05:31;24.88;;;4.05;;
55172;SDS011;41061;52.822;6.860;2023-02-01T06:07:57;29.05;;;3.40;;
55172;SDS011;41061;52.822;6.860;2023-02-01T06:10:23;15.73;;;3.20;;
55172;SDS011;41061;52.822;6.860;2023-02-01T06:12:49;16.45;;;3.60;;
55172;SDS011;41061;52.822;6.860;2023-02-01T06:15:15;15.55;;;2.90;;
55172;SDS011;41061;52.822;6.860;2023-02-01T06:17:41;20.98;;;3.65;;
55172;SDS011;41061;52.822;6.860;2023-02-01T06:20:09;19.20;;;3.17;;
55172;SDS011;41061;52.822;6.860;2023-02-01T06:22:36;23.38;;;4.05;;
55172;SDS011;41061;52.822;6.860;2023-02-01T06:25:02;28.15;;;3.83;;
55172;SDS011;41061;52.822;6.860;2023-02-01T06:27:29;21.48;;;3.08;;
55172;SDS011;41061;52.822;6.860;2023-02-01T06:29:55;27.85;;;3.40;;
55172;SDS011;41061;52.822;6.860;2023-02-01T06:32:21;24.00;;;4.30;;
55172;SDS011;41061;52.822;6.860;2023-02-01T06:34:48;20.42;;;2.97;;
55172;SDS011;41061;52.822;6.860;2023-02-01T06:37:13;24.50;;;3.33;;
55172;SDS011;41061;52.822;6.860;2023-02-01T06:39:39;22.38;;;3.58;;
55172;SDS011;41061;52.822;6.860;2023-02-01T06:42:05;17.52;;;3.00;;
55172;SDS011;41061;52.822;6.860;2023-02-01T06:44:30;17.35;;;3.17;;
55172;SDS011;41061;52.822;6.860;2023-02-01T06:46:56;23.13;;;4.20;;
55172;SDS011;41061;52.822;6.860;2023-02-01T06:49:22;22.13;;;4.40;;
55172;SDS011;41061;52.822;6.860;2023-02-01T06:51:47;22.10;;;2.88;;
55172;SDS011;41061;52.822;6.860;2023-02-01T06:54:13;24.17;;;4.32;;
55172;SDS011;41061;52.822;6.860;2023-02-01T06:56:39;21.60;;;3.60;;
55172;SDS011;41061;52.822;6.860;2023-02-01T06:59:05;21.13;;;3.95;;
55172;SDS011;41061;52.822;6.860;2023-02-01T07:01:32;20.55;;;3.38;;
55172;SDS011;41061;52.822;6.860;2023-02-01T07:03:58;24.58;;;4.07;;
55172;SDS011;41061;52.822;6.860;2023-02-01T07:06:23;21.63;;;3.15;;
55172;SDS011;41061;52.822;6.860;2023-02-01T07:08:49;26.52;;;3.85;;
55172;SDS011;41061;52.822;6.860;2023-02-01T07:11:16;16.17;;;3.13;;
55172;SDS011;41061;52.822;6.860;2023-02-01T07:13:43;24.05;;;3.70;;
55172;SDS011;41061;52.822;6.860;2023-02-01T07:16:10;14.50;;;3.28;;
55172;SDS011;41061;52.822;6.860;2023-02-01T07:18:41;26.60;;;4.03;;
55172;SDS011;41061;52.822;6.860;2023-02-01T07:21:07;24.48;;;3.70;;
55172;SDS011;41061;52.822;6.860;2023-02-01T07:23:33;21.20;;;3.42;;
55172;SDS011;41061;52.822;6.860;2023-02-01T07:25:59;24.40;;;3.03;;
55172;SDS011;41061;52.822;6.860;2023-02-01T07:28:28;16.75;;;2.97;;
55172;SDS011;41061;52.822;6.860;2023-02-01T07:31:01;29.10;;;4.18;;
55172;SDS011;41061;52.822;6.860;2023-02-01T07:33:31;15.57;;;2.47;;
55172;SDS011;41061;52.822;6.860;2023-02-01T07:35:57;24.80;;;4.15;;
55172;SDS011;41061;52.822;6.860;2023-02-01T07:38:25;19.50;;;3.63;;
55172;SDS011;41061;52.822;6.860;2023-02-01T07:40:51;17.65;;;3.67;;
55172;SDS011;41061;52.822;6.860;2023-02-01T07:43:26;35.78;;;5.25;;
55172;SDS011;41061;52.822;6.860;2023-02-01T07:45:52;20.13;;;3.38;;
55172;SDS011;41061;52.822;6.860;2023-02-01T07:48:19;22.52;;;3.92;;
55172;SDS011;41061;52.822;6.860;2023-02-01T07:50:46;21.15;;;3.40;;
55172;SDS011;41061;52.822;6.860;2023-02-01T07:53:11;25.17;;;3.65;;
55172;SDS011;41061;52.822;6.860;2023-02-01T07:55:37;20.92;;;3.13;;
55172;SDS011;41061;52.822;6.860;2023-02-01T07:58:04;19.05;;;3.78;;
55172;SDS011;41061;52.822;6.860;2023-02-01T08:00:30;23.65;;;3.60;;
55172;SDS011;41061;52.822;6.860;2023-02-01T08:03:14;17.60;;;3.03;;
55172;SDS011;41061;52.822;6.860;2023-02-01T08:05:39;20.17;;;2.80;;
55172;SDS011;41061;52.822;6.860;2023-02-01T08:08:05;20.08;;;2.95;;
55172;SDS011;41061;52.822;6.860;2023-02-01T08:10:31;17.15;;;2.70;;
55172;SDS011;41061;52.822;6.860;2023-02-01T08:12:57;25.45;;;3.40;;
55172;SDS011;41061;52.822;6.860;2023-02-01T08:15:25;17.77;;;2.72;;
55172;SDS011;41061;52.822;6.860;2023-02-01T08:17:52;16.77;;;3.20;;
55172;SDS011;41061;52.822;6.860;2023-02-01T08:20:19;16.65;;;3.38;;
55172;SDS011;41061;52.822;6.860;2023-02-01T08:22:49;22.20;;;2.67;;
55172;SDS011;41061;52.822;6.860;2023-02-01T08:25:15;19.02;;;2.95;;
55172;SDS011;41061;52.822;6.860;2023-02-01T08:27:41;20.77;;;3.20;;
55172;SDS011;41061;52.822;6.860;2023-02-01T08:30:07;14.88;;;2.88;;
55172;SDS011;41061;52.822;6.860;2023-02-01T08:32:36;18.90;;;3.40;;
55172;SDS011;41061;52.822;6.860;2023-02-01T08:35:02;19.70;;;3.38;;
55172;SDS011;41061;52.822;6.860;2023-02-01T08:37:29;20.58;;;3.80;;
55172;SDS011;41061;52.822;6.860;2023-02-01T08:39:55;23.05;;;3.30;;
55172;SDS011;41061;52.822;6.860;2023-02-01T08:42:21;15.23;;;2.97;;
55172;SDS011;41061;52.822;6.860;2023-02-01T08:45:05;21.77;;;3.55;;
55172;SDS011;41061;52.822;6.860;2023-02-01T08:47:33;13.75;;;2.65;;
55172;SDS011;41061;52.822;6.860;2023-02-01T08:49:59;22.00;;;2.95;;
55172;SDS011;41061;52.822;6.860;2023-02-01T08:52:24;23.20;;;3.25;;
55172;SDS011;41061;52.822;6.860;2023-02-01T08:54:50;19.08;;;3.58;;
55172;SDS011;41061;52.822;6.860;2023-02-01T08:57:16;22.65;;;3.88;;
55172;SDS011;41061;52.822;6.860;2023-02-01T08:59:42;18.67;;;2.53;;
55172;SDS011;41061;52.822;6.860;2023-02-01T09:02:12;23.67;;;3.53;;
55172;SDS011;41061;52.822;6.860;2023-02-01T09:04:39;24.45;;;3.10;;
55172;SDS011;41061;52.822;6.860;2023-02-01T09:07:06;21.73;;;4.00;;
55172;SDS011;41061;52.822;6.860;2023-02-01T09:09:32;23.15;;;3.75;;
55172;SDS011;41061;52.822;6.860;2023-02-01T09:11:58;22.23;;;3.75;;
55172;SDS011;41061;52.822;6.860;2023-02-01T09:14:23;18.70;;;3.50;;
55172;SDS011;41061;52.822;6.860;2023-02-01T09:16:49;15.85;;;3.22;;
55172;SDS011;41061;52.822;6.860;2023-02-01T09:19:15;20.45;;;2.95;;
55172;SDS011;41061;52.822;6.860;2023-02-01T09:21:40;24.00;;;3.50;;
55172;SDS011;41061;52.822;6.860;2023-02-01T09:24:06;21.83;;;4.13;;
55172;SDS011;41061;52.822;6.860;2023-02-01T09:26:34;22.10;;;3.40;;
55172;SDS011;41061;52.822;6.860;2023-02-01T09:29:01;18.63;;;3.25;;
55172;SDS011;41061;52.822;6.860;2023-02-01T09:31:28;18.40;;;3.40;;
55172;SDS011;41061;52.822;6.860;2023-02-01T09:33:54;20.60;;;2.97;;
55172;SDS011;41061;52.822;6.860;2023-02-01T09:36:20;17.75;;;2.97;;
55172;SDS011;41061;52.822;6.860;2023-02-01T09:38:46;25.73;;;3.92;;
55172;SDS011;41061;52.822;6.860;2023-02-01T09:41:24;16.55;;;3.20;;
55172;SDS011;41061;52.822;6.860;2023-02-01T09:46:46;22.80;;;4.85;;
55172;SDS011;41061;52.822;6.860;2023-02-01T09:49:13;28.25;;;3.55;;
55172;SDS011;41061;52.822;6.860;2023-02-01T09:51:45;16.45;;;2.97;;
55172;SDS011;41061;52.822;6.860;2023-02-01T09:54:14;17.35;;;3.45;;
55172;SDS011;41061;52.822;6.860;2023-02-01T10:02:08;11.30;;;2.17;;
55172;SDS011;41061;52.822;6.860;2023-02-01T10:04:38;17.67;;;2.95;;
55172;SDS011;41061;52.822;6.860;2023-02-01T10:07:13;17.40;;;3.47;;
55172;SDS011;41061;52.822;6.860;2023-02-01T10:15:15;18.40;;;3.28;;
55172;SDS011;41061;52.822;6.860;2023-02-01T10:18:06;22.58;;;3.33;;
55172;SDS011;41061;52.822;6.860;2023-02-01T10:28:32;16.67;;;3.05;;
55172;SDS011;41061;52.822;6.860;2023-02-01T10:30:59;19.70;;;3.13;;
55172;SDS011;41061;52.822;6.860;2023-02-01T10:33:30;13.75;;;2.53;;
55172;SDS011;41061;52.822;6.860;2023-02-01T10:36:09;23.42;;;5.32;;
55172;SDS011;41061;52.822;6.860;2023-02-01T10:38:42;16.80;;;3.15;;
55172;SDS011;41061;52.822;6.860;2023-02-01T10:41:12;19.73;;;3.15;;
55172;SDS011;41061;52.822;6.860;2023-02-01T10:43:43;20.05;;;2.70;;
55172;SDS011;41061;52.822;6.860;2023-02-01T10:46:10;15.85;;;3.00;;
55172;SDS011;41061;52.822;6.860;2023-02-01T10:48:37;22.83;;;4.03;;
55172;SDS011;41061;52.822;6.860;2023-02-01T10:51:07;17.58;;;2.90;;
55172;SDS011;41061;52.822;6.860;2023-02-01T10:53:53;16.13;;;3.08;;
55172;SDS011;41061;52.822;6.860;2023-02-01T10:56:27;25.05;;;3.90;;
55172;SDS011;41061;52.822;6.860;2023-02-01T10:59:01;20.60;;;3.75;;
55172;SDS011;41061;52.822;6.860;2023-02-01T11:01:39;13.38;;;2.80;;
55172;SDS011;41061;52.822;6.860;2023-02-01T11:04:16;13.18;;;2.58;;
55172;SDS011;41061;52.822;6.860;2023-02-01T11:06:49;15.57;;;2.63;;
55172;SDS011;41061;52.822;6.860;2023-02-01T11:09:19;14.88;;;3.22;;
55172;SDS011;41061;52.822;6.860;2023-02-01T11:14:19;15.27;;;2.45;;
55172;SDS011;41061;52.822;6.860;2023-02-01T11:16:52;23.25;;;3.15;;
55172;SDS011;41061;52.822;6.860;2023-02-01T11:19:26;18.37;;;3.10;;
55172;SDS011;41061;52.822;6.860;2023-02-01T11:21:53;14.18;;;2.53;;
55172;SDS011;41061;52.822;6.860;2023-02-01T11:26:59;15.55;;;3.20;;
55172;SDS011;41061;52.822;6.860;2023-02-01T11:29:29;18.50;;;3.50;;
55172;SDS011;41061;52.822;6.860;2023-02-01T11:32:03;20.17;;;3.35;;
55172;SDS011;41061;52.822;6.860;2023-02-01T11:37:21;17.20;;;3.50;;
55172;SDS011;41061;52.822;6.860;2023-02-01T11:40:03;28.63;;;3.42;;
55172;SDS011;41061;52.822;6.860;2023-02-01T11:42:58;16.75;;;3.90;;
55172;SDS011;41061;52.822;6.860;2023-02-01T11:45:39;17.50;;;3.63;;
55172;SDS011;41061;52.822;6.860;2023-02-01T11:48:09;23.83;;;3.47;;
55172;SDS011;41061;52.822;6.860;2023-02-01T11:55:44;18.10;;;3.38;;
55172;SDS011;41061;52.822;6.860;2023-02-01T12:04:12;18.67;;;2.83;;
55172;SDS011;41061;52.822;6.860;2023-02-01T12:06:56;21.65;;;4.25;;
55172;SDS011;41061;52.822;6.860;2023-02-01T12:09:37;21.33;;;3.53;;
55172;SDS011;41061;52.822;6.860;2023-02-01T12:15:03;22.05;;;4.18;;
55172;SDS011;41061;52.822;6.860;2023-02-01T12:34:40;17.42;;;2.80;;
55172;SDS011;41061;52.822;6.860;2023-02-01T12:40:02;16.02;;;3.20;;
55172;SDS011;41061;52.822;6.860;2023-02-01T12:43:03;21.55;;;3.30;;
55172;SDS011;41061;52.822;6.860;2023-02-01T12:45:43;25.17;;;4.03;;
55172;SDS011;41061;52.822;6.860;2023-02-01T12:51:25;19.40;;;2.80;;
55172;SDS011;41061;52.822;6.860;2023-02-01T12:59:22;21.80;;;3.38;;
55172;SDS011;41061;52.822;6.860;2023-02-01T13:02:01;16.27;;;2.78;;
55172;SDS011;41061;52.822;6.860;2023-02-01T13:04:50;17.60;;;3.10;;
55172;SDS011;41061;52.822;6.860;2023-02-01T13:07:42;22.95;;;4.25;;
55172;SDS011;41061;52.822;6.860;2023-02-01T13:15:42;23.92;;;4.15;;
55172;SDS011;41061;52.822;6.860;2023-02-01T13:18:15;16.75;;;3.33;;
55172;SDS011;41061;52.822;6.860;2023-02-01T13:21:06;29.42;;;3.70;;
55172;SDS011;41061;52.822;6.860;2023-02-01T13:23:50;16.98;;;3.35;;
55172;SDS011;41061;52.822;6.860;2023-02-01T13:26:17;24.15;;;3.38;;
55172;SDS011;41061;52.822;6.860;2023-02-01T13:34:02;17.95;;;3.78;;
55172;SDS011;41061;52.822;6.860;2023-02-01T13:45:14;30.63;;;4.63;;
55172;SDS011;41061;52.822;6.860;2023-02-01T13:47:46;15.20;;;2.90;;
55172;SDS011;41061;52.822;6.860;2023-02-01T13:52:58;27.30;;;3.92;;
55172;SDS011;41061;52.822;6.860;2023-02-01T13:55:28;20.13;;;2.92;;
55172;SDS011;41061;52.822;6.860;2023-02-01T14:00:39;23.65;;;3.90;;
55172;SDS011;41061;52.822;6.860;2023-02-01T14:03:08;27.55;;;4.30;;
55172;SDS011;41061;52.822;6.860;2023-02-01T14:26:21;21.23;;;3.60;;
55172;SDS011;41061;52.822;6.860;2023-02-01T14:31:42;18.77;;;2.67;;
55172;SDS011;41061;52.822;6.860;2023-02-01T14:34:14;24.30;;;3.67;;
55172;SDS011;41061;52.822;6.860;2023-02-01T14:37:00;21.73;;;2.42;;
55172;SDS011;41061;52.822;6.860;2023-02-01T14:39:32;27.42;;;3.72;;
55172;SDS011;41061;52.822;6.860;2023-02-01T14:42:18;16.02;;;2.67;;
55172;SDS011;41061;52.822;6.860;2023-02-01T14:50:33;24.08;;;3.92;;
55172;SDS011;41061;52.822;6.860;2023-02-01T14:55:51;21.77;;;3.75;;
55172;SDS011;41061;52.822;6.860;2023-02-01T14:58:35;23.98;;;4.80;;
55172;SDS011;41061;52.822;6.860;2023-02-01T15:06:53;24.42;;;2.92;;
55172;SDS011;41061;52.822;6.860;2023-02-01T15:09:32;19.88;;;3.38;;
55172;SDS011;41061;52.822;6.860;2023-02-01T15:14:38;19.30;;;3.33;;
55172;SDS011;41061;52.822;6.860;2023-02-01T15:17:20;23.38;;;3.17;;
55172;SDS011;41061;52.822;6.860;2023-02-01T15:19:56;21.40;;;3.28;;
55172;SDS011;41061;52.822;6.860;2023-02-01T15:22:23;23.33;;;3.70;;
55172;SDS011;41061;52.822;6.860;2023-02-01T15:24:53;23.75;;;4.05;;
55172;SDS011;41061;52.822;6.860;2023-02-01T15:27:21;24.58;;;4.30;;
55172;SDS011;41061;52.822;6.860;2023-02-01T15:29:47;15.40;;;2.70;;
55172;SDS011;41061;52.822;6.860;2023-02-01T15:32:28;17.55;;;2.75;;
55172;SDS011;41061;52.822;6.860;2023-02-01T15:35:03;20.55;;;3.30;;
55172;SDS011;41061;52.822;6.860;2023-02-01T15:37:30;17.23;;;3.47;;
55172;SDS011;41061;52.822;6.860;2023-02-01T15:40:04;22.15;;;3.03;;
55172;SDS011;41061;52.822;6.860;2023-02-01T15:42:52;30.13;;;3.88;;
55172;SDS011;41061;52.822;6.860;2023-02-01T15:45:31;18.77;;;3.30;;
55172;SDS011;41061;52.822;6.860;2023-02-01T15:47:58;21.15;;;2.95;;
55172;SDS011;41061;52.822;6.860;2023-02-01T15:50:25;24.48;;;3.13;;
55172;SDS011;41061;52.822;6.860;2023-02-01T15:52:53;28.65;;;4.13;;
55172;SDS011;41061;52.822;6.860;2023-02-01T15:57:51;21.13;;;3.17;;
55172;SDS011;41061;52.822;6.860;2023-02-01T16:00:24;21.50;;;4.05;;
55172;SDS011;41061;52.822;6.860;2023-02-01T16:02:59;18.02;;;2.97;;
55172;SDS011;41061;52.822;6.860;2023-02-01T16:05:45;22.83;;;3.05;;
55172;SDS011;41061;52.822;6.860;2023-02-01T16:08:23;18.88;;;3.25;;
55172;SDS011;41061;52.822;6.860;2023-02-01T16:10:52;13.35;;;2.72;;
55172;SDS011;41061;52.822;6.860;2023-02-01T16:13:24;19.02;;;2.92;;
55172;SDS011;41061;52.822;6.860;2023-02-01T16:15:49;16.48;;;2.90;;
55172;SDS011;41061;52.822;6.860;2023-02-01T16:18:15;28.17;;;3.30;;
55172;SDS011;41061;52.822;6.860;2023-02-01T16:20:41;20.25;;;3.08;;
55172;SDS011;41061;52.822;6.860;2023-02-01T16:23:08;8.30;;;2.08;;
55172;SDS011;41061;52.822;6.860;2023-02-01T16:25:35;21.83;;;3.45;;
55172;SDS011;41061;52.822;6.860;2023-02-01T16:28:02;26.40;;;7.43;;
55172;SDS011;41061;52.822;6.860;2023-02-01T16:30:29;41.42;;;11.18;;
55172;SDS011;41061;52.822;6.860;2023-02-01T16:32:56;29.48;;;9.27;;
55172;SDS011;41061;52.822;6.860;2023-02-01T16:35:28;36.30;;;13.57;;
55172;SDS011;41061;52.822;6.860;2023-02-01T16:38:00;47.50;;;18.02;;
55172;SDS011;41061;52.822;6.860;2023-02-01T16:40:37;41.97;;;17.17;;
55172;SDS011;41061;52.822;6.860;2023-02-01T16:43:13;33.33;;;7.03;;
55172;SDS011;41061;52.822;6.860;2023-02-01T16:45:41;23.67;;;6.05;;
55172;SDS011;41061;52.822;6.860;2023-02-01T16:48:16;18.08;;;5.80;;
55172;SDS011;41061;52.822;6.860;2023-02-01T16:50:55;24.10;;;6.25;;
55172;SDS011;41061;52.822;6.860;2023-02-01T16:53:23;31.15;;;9.77;;
55172;SDS011;41061;52.822;6.860;2023-02-01T16:55:50;32.47;;;11.60;;
55172;SDS011;41061;52.822;6.860;2023-02-01T16:58:17;39.88;;;16.52;;
55172;SDS011;41061;52.822;6.860;2023-02-01T17:00:43;55.63;;;19.63;;
55172;SDS011;41061;52.822;6.860;2023-02-01T17:03:10;39.95;;;14.43;;
55172;SDS011;41061;52.822;6.860;2023-02-01T17:05:52;22.40;;;5.78;;
55172;SDS011;41061;52.822;6.860;2023-02-01T17:08:30;22.17;;;4.72;;
55172;SDS011;41061;52.822;6.860;2023-02-01T17:10:58;26.75;;;4.35;;
55172;SDS011;41061;52.822;6.860;2023-02-01T17:13:24;25.92;;;4.28;;
55172;SDS011;41061;52.822;6.860;2023-02-01T17:16:00;19.50;;;4.15;;
55172;SDS011;41061;52.822;6.860;2023-02-01T17:18:28;29.75;;;3.95;;
55172;SDS011;41061;52.822;6.860;2023-02-01T17:21:00;32.75;;;11.32;;
55172;SDS011;41061;52.822;6.860;2023-02-01T17:23:27;53.05;;;20.88;;
55172;SDS011;41061;52.822;6.860;2023-02-01T17:25:54;49.45;;;16.88;;
55172;SDS011;41061;52.822;6.860;2023-02-01T17:28:20;21.10;;;4.25;;
55172;SDS011;41061;52.822;6.860;2023-02-01T17:30:46;31.00;;;5.30;;
55172;SDS011;41061;52.822;6.860;2023-02-01T17:33:21;25.65;;;4.32;;
55172;SDS011;41061;52.822;6.860;2023-02-01T17:35:52;31.48;;;6.25;;
55172;SDS011;41061;52.822;6.860;2023-02-01T17:38:19;29.85;;;7.10;;
55172;SDS011;41061;52.822;6.860;2023-02-01T17:40:45;24.42;;;6.05;;
55172;SDS011;41061;52.822;6.860;2023-02-01T17:43:15;30.30;;;9.63;;
55172;SDS011;41061;52.822;6.860;2023-02-01T17:45:46;57.00;;;20.73;;
55172;SDS011;41061;52.822;6.860;2023-02-01T17:48:17;44.33;;;16.55;;
55172;SDS011;41061;52.822;6.860;2023-02-01T17:50:45;28.88;;;8.77;;
55172;SDS011;41061;52.822;6.860;2023-02-01T17:53:14;49.03;;;19.02;;